Time;durP1;ratioP1;P1;durP2;ratioP2;P2;SDS_P1;SDS_P2;PMS_P1;PMS_P2;Temp;Humidity;BMP_temperature;BMP_pressure;BME280_temperature;BME280_humidity;BME280_pressure;Samples;Min_cycle;Max_cycle;Signal;HPM_P1;HPM_P2
2022/10/03 00:00:15;;;;;;;6.07;1.88;;;10.30;99.90;;;;;;5054055;28;20378;-56
2022/10/03 00:02:46;;;;;;;5.15;1.52;;;10.20;99.90;;;;;;5053705;28;20424;-51
2022/10/03 00:05:38;;;;;;;4.38;1.55;;;10.20;99.90;;;;;;5054209;28;20021;-50
2022/10/03 00:08:03;;;;;;;;;;;10.20;99.90;;;;;;5053386;28;20373;-53
2022/10/03 00:10:49;;;;;;;4.28;1.80;;;10.20;99.90;;;;;;5053993;28;20011;-52
2022/10/03 00:13:39;;;;;;;5.18;1.80;;;10.20;99.90;;;;;;5054295;28;20064;-56
2022/10/03 00:16:10;;;;;;;8.52;2.67;;;10.20;99.90;;;;;;5053966;28;20033;-55
2022/10/03 00:19:05;;;;;;;5.32;2.30;;;10.20;99.90;;;;;;5053944;28;20087;-54
2022/10/03 00:22:09;;;;;;;7.15;2.03;;;10.20;99.90;;;;;;5054900;28;20026;-62
2022/10/03 00:24:52;;;;;;;6.15;2.03;;;10.20;99.90;;;;;;5048728;28;20037;-54
2022/10/03 00:27:32;;;;;;;5.03;1.65;;;10.20;99.90;;;;;;5053762;28;20389;-56
2022/10/03 00:30:15;;;;;;;7.05;2.42;;;10.20;99.90;;;;;;5052542;28;20037;-58
2022/10/03 00:33:12;;;;;;;6.53;2.25;;;10.20;99.90;;;;;;5053742;28;20063;-56
2022/10/03 00:36:11;;;;;;;9.70;2.15;;;10.20;99.90;;;;;;5052217;28;20035;-53
2022/10/03 00:39:12;;;;;;;7.00;2.03;;;10.20;99.90;;;;;;5053721;28;20029;-54
2022/10/03 00:41:52;;;;;;;7.95;2.13;;;10.20;99.90;;;;;;5051434;28;20040;-56
2022/10/03 00:44:18;;;;;;;9.30;2.22;;;10.10;99.90;;;;;;5052964;28;20382;-51
2022/10/03 00:46:49;;;;;;;4.57;1.30;;;10.10;99.90;;;;;;5053398;28;20028;-51
2022/10/03 00:49:33;;;;;;;5.90;1.90;;;10.10;99.90;;;;;;5053222;28;20040;-61
2022/10/03 00:52:30;;;;;;;5.55;1.85;;;10.10;99.90;;;;;;5052527;28;20017;-54
2022/10/03 00:55:02;;;;;;;6.50;2.00;;;10.10;99.90;;;;;;5053232;28;20029;-51
2022/10/03 00:58:15;;;;;;;4.75;1.90;;;10.10;99.90;;;;;;5052566;28;20052;-58
2022/10/03 01:00:50;;;;;;;5.60;1.92;;;10.10;99.90;;;;;;5030480;28;20041;-56
2022/10/03 01:03:39;;;;;;;3.90;1.80;;;10.10;99.90;;;;;;5030812;28;20025;-55
2022/10/03 01:06:42;;;;;;;8.40;1.88;;;10.10;99.90;;;;;;5045107;28;20056;-51
2022/10/03 01:09:49;;;;;;;4.63;1.83;;;10.00;99.90;;;;;;5052700;28;20025;-59
2022/10/03 01:12:25;;;;;;;9.93;2.00;;;10.00;99.90;;;;;;5052231;28;20044;-61
2022/10/03 01:15:15;;;;;;;6.97;1.65;;;9.90;99.90;;;;;;5052797;28;20053;-52
2022/10/03 01:17:53;;;;;;;6.60;1.45;;;9.90;99.90;;;;;;5052444;28;20118;-56
2022/10/03 01:20:30;;;;;;;6.88;1.70;;;9.90;99.90;;;;;;5052253;28;20040;-53
2022/10/03 01:23:27;;;;;;;4.55;1.60;;;9.90;99.90;;;;;;5052502;28;20493;-52
2022/10/03 01:26:29;;;;;;;3.13;1.35;;;9.90;99.90;;;;;;5051732;28;20116;-52
2022/10/03 01:32:03;;;;;;;7.82;1.75;;;9.90;99.90;;;;;;5052410;28;20075;-54
2022/10/03 01:35:05;;;;;;;7.20;2.22;;;9.90;99.90;;;;;;5052345;28;20053;-60
2022/10/03 01:37:47;;;;;;;4.45;1.98;;;9.80;99.90;;;;;;5052304;28;20029;-50
2022/10/03 01:40:28;;;;;;;6.68;2.65;;;9.80;99.90;;;;;;5051911;28;20021;-49
2022/10/03 01:43:01;;;;;;;5.97;2.00;;;9.90;99.90;;;;;;5051931;28;20469;-54
2022/10/03 01:45:42;;;;;;;6.53;2.17;;;9.90;99.90;;;;;;5052654;28;20029;-52
2022/10/03 01:48:33;;;;;;;4.57;1.67;;;9.90;99.90;;;;;;5051242;28;20028;-59
2022/10/03 01:51:10;;;;;;;5.47;1.73;;;9.90;99.90;;;;;;5051632;28;20052;-53
2022/10/03 01:53:52;;;;;;;11.70;2.63;;;9.80;99.90;;;;;;5051514;28;20152;-50
2022/10/03 01:56:24;;;;;;;6.88;1.80;;;9.80;99.90;;;;;;5052408;28;20146;-71
2022/10/03 01:59:04;;;;;;;7.35;1.98;;;9.90;99.90;;;;;;5052105;28;20032;-71
2022/10/03 02:01:51;;;;;;;6.70;1.90;;;9.90;99.90;;;;;;5051771;28;20021;-72
2022/10/03 02:04:31;;;;;;;6.60;2.30;;;9.90;99.90;;;;;;5052430;28;20025;-72
2022/10/03 02:07:07;;;;;;;9.23;2.00;;;9.90;99.90;;;;;;5051887;28;20021;-64
2022/10/03 02:09:44;;;;;;;6.13;1.65;;;9.80;99.90;;;;;;5051410;28;20102;-71
2022/10/03 02:12:20;;;;;;;5.43;1.80;;;9.70;99.90;;;;;;5051323;28;20111;-72
2022/10/03 02:15:00;;;;;;;11.82;2.00;;;9.60;99.90;;;;;;5050774;28;20025;-56
2022/10/03 02:17:42;;;;;;;4.63;1.70;;;9.60;99.90;;;;;;5050022;28;20077;-54
2022/10/03 02:20:24;;;;;;;5.38;1.42;;;9.60;99.90;;;;;;5051542;28;20048;-48
2022/10/03 02:22:54;;;;;;;5.60;1.90;;;9.60;99.90;;;;;;5050840;28;20025;-57
2022/10/03 02:25:25;;;;;;;5.75;1.67;;;9.60;99.90;;;;;;5052452;28;20017;-55
2022/10/03 02:28:09;;;;;;;3.90;1.33;;;9.50;99.90;;;;;;5051269;28;20056;-54
2022/10/03 02:30:37;;;;;;;4.10;1.73;;;9.60;99.90;;;;;;5050867;28;20069;-55
2022/10/03 02:33:24;;;;;;;5.38;1.55;;;9.50;99.90;;;;;;5051138;28;20485;-56
2022/10/03 02:36:06;;;;;;;3.13;1.70;;;9.50;99.90;;;;;;5050499;28;20036;-55
2022/10/03 02:39:03;;;;;;;5.30;2.00;;;9.50;99.90;;;;;;5051434;28;20032;-54
2022/10/03 02:42:03;;;;;;;4.18;1.58;;;9.30;99.90;;;;;;5051485;28;20104;-56
2022/10/03 02:45:03;;;;;;;4.32;1.65;;;9.30;99.90;;;;;;5051037;28;20051;-53
2022/10/03 02:47:48;;;;;;;4.40;1.80;;;9.20;99.90;;;;;;5051514;28;20029;-65
2022/10/03 02:50:25;;;;;;;3.55;1.77;;;9.20;99.90;;;;;;5050670;28;20052;-63
2022/10/03 02:53:29;;;;;;;3.78;1.60;;;9.10;99.90;;;;;;5051433;28;20032;-58
2022/10/03 02:56:10;;;;;;;6.28;1.85;;;9.10;99.90;;;;;;5051014;28;20056;-55
2022/10/03 02:59:05;;;;;;;6.93;1.70;;;9.00;99.90;;;;;;5050673;28;20068;-53
2022/10/03 03:01:36;;;;;;;2.70;1.60;;;9.00;99.90;;;;;;5051401;28;20427;-51
2022/10/03 03:04:49;;;;;;;7.10;2.00;;;8.90;99.90;;;;;;5050478;28;20489;-53
2022/10/03 03:07:38;;;;;;;3.47;1.42;;;8.90;99.90;;;;;;5050759;28;20025;-54
2022/10/03 03:10:33;;;;;;;4.22;1.35;;;8.90;99.90;;;;;;5050841;28;20045;-59
2022/10/03 03:13:24;;;;;;;2.13;1.35;;;9.00;99.90;;;;;;5050572;28;20021;-55
2022/10/03 03:16:09;;;;;;;;;;;9.00;99.90;;;;;;5051580;28;20108;-55
2022/10/03 03:19:10;;;;;;;3.72;1.40;;;9.00;99.90;;;;;;5050330;28;19917;-56
2022/10/03 03:21:43;;;;;;;5.18;1.80;;;8.90;99.90;;;;;;5040699;28;20075;-58
2022/10/03 03:24:19;;;;;;;2.08;1.20;;;8.90;99.90;;;;;;5052118;28;20025;-57
2022/10/03 03:27:16;;;;;;;4.82;1.40;;;8.90;99.90;;;;;;5053944;28;20456;-56
2022/10/03 03:29:57;;;;;;;4.55;1.20;;;8.90;99.90;;;;;;5054713;28;20029;-59
2022/10/03 03:33:10;;;;;;;6.57;1.50;;;8.90;99.90;;;;;;5054604;28;20104;-54
2022/10/03 03:35:50;;;;;;;4.30;1.40;;;8.90;99.90;;;;;;5052458;28;20036;-59
2022/10/03 03:38:29;;;;;;;9.23;1.90;;;8.80;99.90;;;;;;5054631;28;20051;-64
2022/10/03 03:41:04;;;;;;;6.53;1.75;;;8.80;99.90;;;;;;5054055;28;20313;-57
2022/10/03 03:43:58;;;;;;;7.00;1.48;;;8.70;99.90;;;;;;5054712;28;20029;-58
2022/10/03 03:46:30;;;;;;;4.35;1.30;;;8.70;99.90;;;;;;5053790;28;20028;-55
2022/10/03 03:49:02;;;;;;;2.50;1.40;;;8.70;99.90;;;;;;5054003;28;20025;-58
2022/10/03 03:51:50;;;;;;;9.05;1.67;;;8.70;99.90;;;;;;5054678;28;20082;-55
2022/10/03 03:54:53;;;;;;;4.80;1.50;;;8.60;99.90;;;;;;5053919;28;20021;-54
2022/10/03 03:57:42;;;;;;;2.55;1.23;;;8.60;99.90;;;;;;5054240;28;20090;-60
2022/10/03 04:00:13;;;;;;;6.40;1.73;;;8.60;99.90;;;;;;5053519;28;20037;-55
2022/10/03 04:03:13;;;;;;;4.55;1.42;;;8.60;99.90;;;;;;5054216;28;20481;-53
2022/10/03 04:05:54;;;;;;;4.65;1.73;;;8.60;99.90;;;;;;5054179;28;20033;-52
2022/10/03 04:08:44;;;;;;;6.13;1.48;;;8.50;99.90;;;;;;5053588;28;20024;-51
2022/10/03 04:11:35;;;;;;;8.35;1.90;;;8.50;99.90;;;;;;5054017;28;20065;-54
2022/10/03 04:14:15;;;;;;;6.03;1.60;;;8.50;99.90;;;;;;5053072;28;20107;-49
2022/10/03 04:20:22;;;;;;;4.57;1.55;;;8.50;99.90;;;;;;5022332;28;20062;-50
2022/10/03 04:23:06;;;;;;;4.45;1.30;;;8.50;99.90;;;;;;5053161;28;20035;-51
2022/10/03 04:25:31;;;;;;;2.90;1.35;;;8.50;99.90;;;;;;5051270;28;20024;-50
2022/10/03 04:28:27;;;;;;;4.78;1.40;;;8.50;99.90;;;;;;5053421;28;20374;-48
2022/10/03 04:31:05;;;;;;;2.22;1.20;;;8.40;99.90;;;;;;5072315;28;20492;-57
2022/10/03 04:33:54;;;;;;;2.58;1.38;;;8.40;99.90;;;;;;5074052;28;20028;-54
2022/10/03 04:37:05;;;;;;;3.72;1.45;;;8.30;99.90;;;;;;5071104;28;20464;-65
2022/10/03 04:40:14;;;;;;;5.47;1.40;;;8.30;99.90;;;;;;5073954;28;20052;-60
2022/10/03 04:43:10;;;;;;;2.67;1.33;;;8.30;99.90;;;;;;5072669;28;20047;-52
2022/10/03 04:46:00;;;;;;;4.53;1.35;;;8.20;99.90;;;;;;5073337;28;20052;-51
2022/10/03 04:48:44;;;;;;;7.80;1.63;;;8.20;99.90;;;;;;5073106;28;20640;-57
2022/10/03 04:51:23;;;;;;;7.70;1.35;;;8.20;99.90;;;;;;5044652;28;20608;-52
2022/10/03 04:53:56;;;;;;;5.50;1.88;;;8.10;99.90;;;;;;5049013;28;20168;-60
2022/10/03 04:56:35;;;;;;;4.57;1.48;;;8.10;99.90;;;;;;5051323;28;20049;-62
2022/10/03 04:59:19;;;;;;;3.88;1.40;;;8.10;99.90;;;;;;5051861;28;20014;-54
2022/10/03 05:02:16;;;;;;;6.25;1.90;;;8.10;99.90;;;;;;5050201;28;20037;-62
2022/10/03 05:04:59;;;;;;;3.05;1.63;;;8.10;99.90;;;;;;5051586;28;20028;-56
2022/10/03 05:07:59;;;;;;;8.13;2.10;;;8.10;99.90;;;;;;5051977;28;20116;-62
2022/10/03 05:10:40;;;;;;;3.60;1.60;;;8.10;99.90;;;;;;5048656;28;20768;-54
2022/10/03 05:13:40;;;;;;;11.60;2.45;;;8.10;99.90;;;;;;5049608;28;20124;-61
2022/10/03 05:16:27;;;;;;;8.15;2.47;;;8.10;99.90;;;;;;5049188;28;20029;-61
2022/10/03 05:19:04;;;;;;;5.40;2.40;;;8.10;99.90;;;;;;5049945;28;20551;-69
2022/10/03 05:21:35;;;;;;;6.65;2.15;;;8.10;99.90;;;;;;5048910;28;20370;-63
2022/10/03 05:24:25;;;;;;;4.00;2.10;;;8.10;99.90;;;;;;5050330;28;20021;-58
2022/10/03 05:27:02;;;;;;;3.53;1.73;;;8.20;99.90;;;;;;5049799;28;20028;-63
2022/10/03 05:29:38;;;;;;;7.05;1.60;;;8.20;99.90;;;;;;5049997;28;20032;-62
2022/10/03 05:32:26;;;;;;;7.43;2.28;;;8.30;99.90;;;;;;5049575;28;20032;-56
2022/10/03 05:35:21;;;;;;;3.85;1.75;;;8.30;99.90;;;;;;5051842;28;20048;-54
2022/10/03 05:38:08;;;;;;;3.65;1.67;;;8.30;99.90;;;;;;5048944;28;20148;-64
2022/10/03 05:40:39;;;;;;;5.40;1.70;;;8.30;99.90;;;;;;5050244;28;20481;-59
2022/10/03 05:43:20;;;;;;;2.08;1.20;;;8.30;99.90;;;;;;5050764;28;20538;-67
2022/10/03 05:46:23;;;;;;;5.43;1.67;;;8.30;99.90;;;;;;5050679;28;20066;-63
2022/10/03 05:49:15;;;;;;;5.65;1.80;;;8.40;99.90;;;;;;5030719;28;20120;-60
2022/10/03 05:51:46;;;;;;;3.95;1.52;;;8.50;99.90;;;;;;5036115;28;20496;-64
2022/10/03 05:54:24;;;;;;;;;;;8.60;99.90;;;;;;5050394;28;20112;-55
2022/10/03 05:57:34;;;;;;;3.58;1.55;;;8.70;99.90;;;;;;5051724;28;19938;-58
2022/10/03 06:00:22;;;;;;;5.53;1.95;;;8.80;99.90;;;;;;5048505;28;20157;-55
2022/10/03 06:02:53;;;;;;;8.90;2.97;;;8.80;99.90;;;;;;5050161;28;20051;-54
2022/10/03 06:05:36;;;;;;;5.85;2.30;;;8.90;99.90;;;;;;5050706;28;20500;-56
2022/10/03 06:08:23;;;;;;;5.22;2.53;;;8.90;99.90;;;;;;5050948;28;20025;-51
2022/10/03 06:11:12;;;;;;;6.25;2.20;;;8.80;99.90;;;;;;5051649;28;20440;-64
2022/10/03 06:14:27;;;;;;;5.30;2.33;;;8.80;99.90;;;;;;5051324;28;20024;-70
2022/10/03 06:17:12;;;;;;;6.45;2.10;;;8.80;99.90;;;;;;5029013;28;20064;-69
2022/10/03 06:19:40;;;;;;;3.70;2.03;;;8.80;99.90;;;;;;5051836;28;20044;-68
2022/10/03 06:22:42;;;;;;;5.95;1.70;;;8.70;99.90;;;;;;5050971;28;20024;-70
2022/10/03 06:25:22;;;;;;;2.92;1.50;;;8.70;99.90;;;;;;5051497;28;20025;-65
2022/10/03 06:28:09;;;;;;;3.92;1.40;;;8.70;99.90;;;;;;5050835;28;20132;-69
2022/10/03 06:30:57;;;;;;;2.70;1.25;;;8.80;99.90;;;;;;5051543;28;20043;-64
2022/10/03 06:34:02;;;;;;;8.02;1.45;;;8.80;99.90;;;;;;5051777;28;20035;-52
2022/10/03 06:37:03;;;;;;;3.38;1.42;;;8.90;99.90;;;;;;5050798;28;20070;-52
2022/10/03 06:40:06;;;;;;;3.60;1.60;;;8.90;99.90;;;;;;5031770;28;20124;-54
2022/10/03 06:42:43;;;;;;;4.80;1.90;;;8.90;99.90;;;;;;5051204;28;20021;-54
2022/10/03 06:45:27;;;;;;;2.25;1.40;;;8.90;99.90;;;;;;5050968;28;20151;-60
2022/10/03 06:48:11;;;;;;;1.75;1.23;;;8.90;99.90;;;;;;5051193;28;20060;-55
2022/10/03 06:50:53;;;;;;;2.35;1.50;;;9.00;99.90;;;;;;5049621;28;20033;-55
2022/10/03 06:53:18;;;;;;;;;;;9.00;99.90;;;;;;5051695;28;20028;-52
2022/10/03 06:56:21;;;;;;;6.03;1.50;;;9.00;99.90;;;;;;5050379;28;19905;-55
2022/10/03 06:59:28;;;;;;;5.97;2.70;;;9.10;99.90;;;;;;5051607;28;20107;-56
2022/10/03 07:01:56;;;;;;;2.97;1.55;;;9.20;99.90;;;;;;5055121;28;20024;-62
2022/10/03 07:04:54;;;;;;;2.30;1.17;;;9.20;99.90;;;;;;5054893;28;20099;-55
2022/10/03 07:07:55;;;;;;;8.70;1.35;;;9.30;99.90;;;;;;5051917;28;20029;-59
2022/10/03 07:10:27;;;;;;;3.85;1.60;;;9.40;99.90;;;;;;5054651;28;20764;-56
2022/10/03 07:13:22;;;;;;;3.97;1.30;;;9.50;99.90;;;;;;5054652;28;20476;-58
2022/10/03 07:16:08;;;;;;;4.32;1.08;;;9.60;99.90;;;;;;5054957;28;20029;-57
2022/10/03 07:18:45;;;;;;;5.05;2.08;;;9.70;99.90;;;;;;5054523;28;20049;-55
2022/10/03 07:21:48;;;;;;;3.50;1.33;;;9.80;99.90;;;;;;5055274;28;20151;-56
2022/10/03 07:24:40;;;;;;;2.92;0.98;;;9.90;99.90;;;;;;5054423;28;20021;-60
2022/10/03 07:27:34;;;;;;;7.20;1.75;;;10.00;99.90;;;;;;5054914;28;20036;-56
2022/10/03 07:30:10;;;;;;;5.10;1.40;;;10.10;99.90;;;;;;5054586;28;20045;-57
2022/10/03 07:33:12;;;;;;;2.10;1.00;;;10.20;99.90;;;;;;5054288;28;20013;-58
2022/10/03 07:38:59;;;;;;;5.65;1.70;;;10.40;99.90;;;;;;5054254;28;20063;-60
2022/10/03 07:41:43;;;;;;;3.70;1.38;;;10.50;99.90;;;;;;5055142;28;20031;-63
2022/10/03 07:44:39;;;;;;;6.55;1.50;;;10.60;99.90;;;;;;5054613;28;20029;-64
2022/10/03 07:47:31;;;;;;;9.50;2.17;;;10.80;99.90;;;;;;5049404;28;20108;-66
2022/10/03 07:50:21;;;;;;;4.05;1.10;;;11.00;99.90;;;;;;5054486;28;20025;-58
2022/10/03 07:53:23;;;;;;;8.82;1.50;;;11.20;99.90;;;;;;5053698;28;20381;-57
2022/10/03 07:56:08;;;;;;;4.75;1.23;;;11.40;99.90;;;;;;5054585;28;20025;-62
2022/10/03 07:59:03;;;;;;;5.22;1.38;;;11.60;99.90;;;;;;5054467;28;20099;-60
2022/10/03 08:01:53;;;;;;;3.92;1.15;;;11.70;99.90;;;;;;5054719;28;20071;-66
2022/10/03 08:04:53;;;;;;;3.00;1.02;;;11.80;99.90;;;;;;5054508;28;20028;-66
2022/10/03 08:07:54;;;;;;;3.40;0.82;;;11.90;99.90;;;;;;5053950;28;20481;-66
2022/10/03 08:10:37;;;;;;;3.27;0.87;;;12.10;99.90;;;;;;5054505;28;20068;-62
2022/10/03 08:13:08;;;;;;;4.10;1.27;;;12.20;99.90;;;;;;5053544;28;20267;-59
2022/10/03 08:15:42;;;;;;;3.72;0.98;;;12.30;99.90;;;;;;5054077;28;20116;-64
2022/10/03 08:18:26;;;;;;;4.28;0.90;;;12.40;99.90;;;;;;5053894;28;20397;-59
2022/10/03 08:20:57;;;;;;;5.82;1.38;;;12.60;99.90;;;;;;5053323;28;20474;-66
2022/10/03 08:23:42;;;;;;;4.65;1.27;;;12.60;99.90;;;;;;5054001;28;20025;-63
2022/10/03 08:26:33;;;;;;;5.82;1.55;;;12.80;99.90;;;;;;5053442;28;20060;-61
2022/10/03 08:29:24;;;;;;;5.60;1.70;;;13.00;99.90;;;;;;5052948;28;20545;-62
2022/10/03 08:32:14;;;;;;;4.57;0.90;;;13.10;99.90;;;;;;5053448;28;20028;-66
2022/10/03 08:34:59;;;;;;;5.00;0.82;;;13.20;99.90;;;;;;5053241;28;20025;-59
2022/10/03 08:37:37;;;;;;;5.38;1.15;;;13.30;99.90;;;;;;5053783;28;20017;-62
2022/10/03 08:40:28;;;;;;;7.28;1.08;;;13.40;99.90;;;;;;5053746;28;20025;-65
2022/10/03 08:43:14;;;;;;;1.98;0.93;;;13.50;99.90;;;;;;5052661;28;20033;-55
2022/10/03 08:46:05;;;;;;;3.67;0.98;;;13.60;99.90;;;;;;5053701;28;20025;-51
2022/10/03 08:48:57;;;;;;;3.60;0.98;;;13.70;99.90;;;;;;5055315;28;20104;-56
2022/10/03 08:51:51;;;;;;;5.32;0.85;;;13.80;99.90;;;;;;5053919;28;20052;-58
2022/10/03 08:54:21;;;;;;;5.55;1.52;;;13.90;99.90;;;;;;5053584;28;20040;-58
2022/10/03 08:57:17;;;;;;;3.38;0.88;;;13.90;99.90;;;;;;5052556;28;20024;-61
2022/10/03 09:00:07;;;;;;;4.45;1.00;;;14.00;99.90;;;;;;5053344;28;20104;-55
2022/10/03 09:02:47;;;;;;;2.85;0.85;;;14.10;99.90;;;;;;5050948;28;20027;-61
2022/10/03 09:05:41;;;;;;;4.03;1.27;;;14.20;99.90;;;;;;5052676;28;20468;-59
2022/10/03 09:08:40;;;;;;;3.50;0.93;;;14.30;99.90;;;;;;5052639;28;20314;-56
2022/10/03 09:11:27;;;;;;;3.65;0.80;;;14.40;99.90;;;;;;5052094;28;20048;-64
2022/10/03 09:14:12;;;;;;;3.97;0.90;;;14.50;99.90;;;;;;5052858;28;20025;-56
2022/10/03 09:17:12;;;;;;;3.85;0.98;;;14.50;99.90;;;;;;5052094;28;20041;-58
2022/10/03 09:20:02;;;;;;;6.78;1.70;;;14.70;99.90;;;;;;5041877;28;20044;-57
2022/10/03 09:22:52;;;;;;;5.28;0.90;;;14.70;99.70;;;;;;5052614;28;20031;-58
2022/10/03 09:25:23;;;;;;;4.15;1.00;;;14.80;99.40;;;;;;5052300;28;20033;-59
2022/10/03 09:28:03;;;;;;;3.63;0.90;;;14.80;99.30;;;;;;5052256;28;20779;-54
2022/10/03 09:30:53;;;;;;;2.55;0.70;;;14.90;99.00;;;;;;5052164;28;20068;-64
2022/10/03 09:33:34;;;;;;;7.57;2.08;;;14.90;99.00;;;;;;5052679;28;20021;-58
2022/10/03 09:36:25;;;;;;;5.32;1.15;;;14.90;98.50;;;;;;5052740;28;20025;-69
2022/10/03 09:39:24;;;;;;;1.45;0.70;;;15.00;98.40;;;;;;5051866;28;20499;-63
2022/10/03 09:42:28;;;;;;;4.65;0.90;;;15.00;98.00;;;;;;5052458;28;20032;-63
2022/10/03 09:45:09;;;;;;;7.18;0.80;;;15.10;98.00;;;;;;5051529;28;20036;-59
2022/10/03 09:48:20;;;;;;;3.13;1.00;;;15.10;98.00;;;;;;5052390;28;20017;-60
2022/10/03 09:51:05;;;;;;;3.50;0.80;;;15.20;98.00;;;;;;5028352;28;20405;-67
2022/10/03 09:53:58;;;;;;;4.40;1.00;;;15.30;97.80;;;;;;5051776;28;20026;-66
2022/10/03 09:56:48;;;;;;;4.05;0.82;;;15.40;97.20;;;;;;5052100;28;20482;-59
2022/10/03 09:59:19;;;;;;;3.67;0.93;;;15.50;96.40;;;;;;5051451;28;20378;-63
2022/10/03 10:01:59;;;;;;;;;;;15.60;96.50;;;;;;5052464;28;20017;-66
2022/10/03 10:04:40;;;;;;;3.72;0.98;;;15.70;96.50;;;;;;5052324;28;19908;-66
2022/10/03 10:07:51;;;;;;;5.13;1.02;;;15.70;96.50;;;;;;5051363;28;20126;-62
2022/10/03 10:10:54;;;;;;;2.95;1.00;;;15.70;96.50;;;;;;5052095;28;20040;-64
2022/10/03 10:13:54;;;;;;;1.33;0.60;;;15.70;96.60;;;;;;5051438;28;20112;-70
2022/10/03 10:16:27;;;;;;;2.08;0.85;;;15.70;96.10;;;;;;5052006;28;20025;-69
2022/10/03 10:19:17;;;;;;;2.42;0.57;;;15.70;95.70;;;;;;5050351;28;20063;-62
2022/10/03 10:21:45;;;;;;;3.67;0.95;;;15.80;95.30;;;;;;5051295;28;20124;-61
2022/10/03 10:24:54;;;;;;;2.53;0.70;;;16.00;94.50;;;;;;5052007;28;20021;-60
2022/10/03 10:27:41;;;;;;;2.55;0.50;;;16.10;94.10;;;;;;5051237;28;20021;-68
2022/10/03 10:30:31;;;;;;;1.80;0.70;;;16.20;94.00;;;;;;5051468;28;20048;-58
2022/10/03 10:33:30;;;;;;;2.22;0.90;;;16.30;93.70;;;;;;5051305;28;20124;-63
2022/10/03 10:36:36;;;;;;;2.05;0.60;;;16.40;92.90;;;;;;5050788;28;20120;-64
2022/10/03 10:39:35;;;;;;;3.10;0.60;;;16.50;90.60;;;;;;5051372;28;20466;-62
2022/10/03 10:42:00;;;;;;;4.53;0.77;;;16.60;91.20;;;;;;5050796;28;20533;-67
2022/10/03 10:44:41;;;;;;;2.35;1.00;;;16.70;90.50;;;;;;5051409;28;20045;-62
2022/10/03 10:47:28;;;;;;;3.43;0.93;;;16.80;90.20;;;;;;5051491;28;20063;-60
2022/10/03 10:50:17;;;;;;;4.43;0.80;;;16.90;90.20;;;;;;5050403;28;20386;-56
2022/10/03 10:52:46;;;;;;;3.25;0.68;;;17.00;88.60;;;;;;5051643;28;20477;-53
2022/10/03 10:55:24;;;;;;;1.48;0.40;;;17.00;87.70;;;;;;5050979;28;20364;-58
2022/10/03 10:58:31;;;;;;;2.25;0.65;;;17.00;87.90;;;;;;5050668;28;20036;-59
2022/10/03 11:01:17;;;;;;;2.25;0.60;;;17.10;87.30;;;;;;5051545;28;20056;-57
2022/10/03 11:03:52;;;;;;;1.10;0.60;;;17.20;85.80;;;;;;5050949;28;20055;-58
2022/10/03 11:06:41;;;;;;;3.20;0.85;;;17.30;86.30;;;;;;5051318;28;20446;-59
2022/10/03 11:09:27;;;;;;;2.00;0.80;;;17.30;84.60;;;;;;5048512;28;20032;-62
2022/10/03 11:12:11;;;;;;;2.50;0.60;;;17.30;84.40;;;;;;5050973;28;20025;-56
2022/10/03 11:15:07;;;;;;;2.25;0.73;;;17.40;84.50;;;;;;5050969;28;20131;-62
2022/10/03 11:17:58;;;;;;;2.80;0.75;;;17.50;84.00;;;;;;5049704;28;20059;-54
2022/10/03 11:21:00;;;;;;;2.33;0.60;;;17.60;82.40;;;;;;5051324;28;20491;-58
2022/10/03 11:23:45;;;;;;;1.80;0.80;;;17.50;81.50;;;;;;5050838;28;20056;-59
2022/10/03 11:26:38;;;;;;;2.22;0.63;;;17.50;82.60;;;;;;5051188;28;20028;-56
2022/10/03 11:29:30;;;;;;;1.83;0.70;;;17.50;82.40;;;;;;5050076;28;20516;-54
2022/10/03 11:32:36;;;;;;;3.28;0.85;;;17.60;83.20;;;;;;5048844;28;20041;-53
2022/10/03 11:35:28;;;;;;;1.58;0.70;;;17.70;83.10;;;;;;5050688;28;20021;-55
2022/10/03 11:38:03;;;;;;;4.00;0.80;;;17.80;82.50;;;;;;5049415;28;20032;-58
2022/10/03 11:41:01;;;;;;;2.53;0.80;;;17.90;82.50;;;;;;5050868;28;20529;-59
2022/10/03 11:43:36;;;;;;;4.03;1.05;;;18.00;81.40;;;;;;5050012;28;20158;-58
2022/10/03 11:46:19;;;;;;;3.70;1.00;;;18.00;79.60;;;;;;5052987;28;20021;-60
2022/10/03 11:49:04;;;;;;;2.60;0.60;;;18.10;81.30;;;;;;5054059;28;20149;-59
2022/10/03 11:51:39;;;;;;;2.22;0.60;;;18.10;81.10;;;;;;5053737;28;20489;-68
2022/10/03 11:54:26;;;;;;;1.42;0.70;;;18.20;79.70;;;;;;5053770;28;20121;-61
2022/10/03 11:57:19;;;;;;;2.58;0.60;;;18.20;78.30;;;;;;5052327;28;20104;-61
2022/10/03 12:00:03;;;;;;;3.13;1.02;;;18.20;78.60;;;;;;5053943;28;20025;-65
2022/10/03 12:02:33;;;;;;;2.53;0.70;;;18.30;78.40;;;;;;5053006;28;20111;-69
2022/10/03 12:05:10;;;;;;;1.40;0.57;;;18.30;78.30;;;;;;5053419;28;20444;-70
2022/10/03 12:10:41;;;;;;;2.45;0.90;;;18.30;77.40;;;;;;5053556;28;20067;-56
2022/10/03 12:13:16;;;;;;;1.90;0.80;;;18.30;77.20;;;;;;5053526;28;20106;-62
2022/10/03 12:15:50;;;;;;;2.78;0.90;;;18.30;77.50;;;;;;5054149;28;20044;-59
2022/10/03 12:18:47;;;;;;;3.72;0.75;;;18.20;77.90;;;;;;5053070;28;20064;-60
2022/10/03 12:21:39;;;;;;;4.53;0.90;;;18.20;79.10;;;;;;5054017;28;20025;-57
2022/10/03 12:24:22;;;;;;;0.80;0.63;;;18.20;80.00;;;;;;5053725;28;20747;-67
2022/10/03 12:27:03;;;;;;;3.28;0.70;;;18.20;80.00;;;;;;5053405;28;20085;-56
2022/10/03 12:29:31;;;;;;;;;;;18.20;79.00;;;;;;5053753;28;20485;-53
2022/10/03 12:32:04;;;;;;;2.67;0.70;;;18.20;79.10;;;;;;5052561;28;19908;-68
2022/10/03 12:34:39;;;;;;;5.20;0.93;;;18.30;79.40;;;;;;5053712;28;20128;-72
2022/10/03 12:37:23;;;;;;;2.05;1.08;;;18.40;79.20;;;;;;5053495;28;20035;-72
2022/10/03 12:40:12;;;;;;;3.92;1.10;;;18.40;77.70;;;;;;5052471;28;20021;-68
2022/10/03 12:42:47;;;;;;;3.80;1.05;;;18.20;77.00;;;;;;5053717;28;20021;-66
2022/10/03 12:45:29;;;;;;;1.90;0.82;;;18.00;77.80;;;;;;5053543;28;20025;-61
2022/10/03 12:48:12;;;;;;;4.28;1.45;;;17.90;78.60;;;;;;5053067;28;20082;-58
2022/10/03 12:50:42;;;;;;;5.68;1.15;;;17.80;79.30;;;;;;5052016;28;20461;-65
2022/10/03 12:53:14;;;;;;;4.18;1.13;;;17.80;79.60;;;;;;5052360;28;20092;-53
2022/10/03 12:56:03;;;;;;;6.28;1.20;;;17.70;79.00;;;;;;5052905;28;20024;-54
2022/10/03 12:58:34;;;;;;;3.05;1.00;;;17.60;80.00;;;;;;5052165;28;20665;-54
2022/10/03 13:01:25;;;;;;;4.30;0.90;;;17.60;80.80;;;;;;5051726;28;20021;-53
2022/10/03 13:04:05;;;;;;;3.80;0.90;;;17.50;80.80;;;;;;5053179;28;20048;-57
2022/10/03 13:06:44;;;;;;;4.35;1.30;;;17.50;81.20;;;;;;5053690;28;20496;-62
2022/10/03 13:09:38;;;;;;;5.90;1.38;;;17.60;81.70;;;;;;5052813;28;20665;-58
2022/10/03 13:12:33;;;;;;;2.38;0.95;;;17.60;82.00;;;;;;5052286;28;20516;-55
2022/10/03 13:15:36;;;;;;;3.13;0.90;;;17.70;82.50;;;;;;5051579;28;20078;-56
2022/10/03 13:18:26;;;;;;;3.78;1.00;;;17.80;81.90;;;;;;5051716;28;20132;-54
2022/10/03 13:20:58;;;;;;;3.15;0.90;;;17.90;82.20;;;;;;5051650;28;20037;-58
2022/10/03 13:23:39;;;;;;;3.78;1.35;;;18.00;81.30;;;;;;5052612;28;20031;-59
2022/10/03 13:26:18;;;;;;;3.80;1.00;;;18.10;80.50;;;;;;5052111;28;20086;-57
2022/10/03 13:29:04;;;;;;;3.75;0.90;;;18.20;79.90;;;;;;5051601;28;20036;-56
2022/10/03 13:31:33;;;;;;;4.20;0.98;;;18.20;80.00;;;;;;5052173;28;20044;-61
2022/10/03 13:34:05;;;;;;;3.92;0.65;;;18.30;80.20;;;;;;5052056;28;20465;-67
2022/10/03 13:36:49;;;;;;;5.00;0.90;;;18.40;80.50;;;;;;5051693;28;20031;-58
2022/10/03 13:39:35;;;;;;;3.92;1.25;;;18.40;78.80;;;;;;5052302;28;20033;-58
2022/10/03 13:42:18;;;;;;;1.75;1.00;;;18.30;76.20;;;;;;5051318;28;20021;-56
2022/10/03 13:44:47;;;;;;;3.25;1.48;;;18.20;76.10;;;;;;5051645;28;20648;-56
2022/10/03 13:47:15;;;;;;;2.92;0.90;;;18.20;75.90;;;;;;5051967;28;20037;-60
2022/10/03 13:49:47;;;;;;;3.55;0.88;;;18.20;76.70;;;;;;5051194;28;20021;-59
2022/10/03 13:52:20;;;;;;;3.92;1.23;;;18.30;75.80;;;;;;5052153;28;20167;-59
2022/10/03 13:55:08;;;;;;;3.00;0.80;;;18.40;75.40;;;;;;5051840;28;20025;-59
2022/10/03 13:57:39;;;;;;;4.10;0.95;;;18.40;75.10;;;;;;5051164;28;20060;-59
2022/10/03 14:00:25;;;;;;;3.25;0.63;;;18.50;75.50;;;;;;5051416;28;20078;-59
2022/10/03 14:03:07;;;;;;;5.18;0.90;;;18.60;75.90;;;;;;5051102;28;20402;-56
2022/10/03 14:06:02;;;;;;;1.95;0.77;;;18.60;76.10;;;;;;5051889;28;20024;-62
2022/10/03 14:09:13;;;;;;;3.53;0.65;;;18.60;75.70;;;;;;5051668;28;20051;-68
2022/10/03 14:12:02;;;;;;;2.90;0.80;;;18.60;76.00;;;;;;5050714;28;20098;-67
2022/10/03 14:14:44;;;;;;;2.80;0.93;;;18.50;74.10;;;;;;5051432;28;20453;-66
2022/10/03 14:17:44;;;;;;;2.33;0.75;;;18.40;73.70;;;;;;5050775;28;20045;-59
2022/10/03 14:20:19;;;;;;;1.08;0.63;;;18.40;73.90;;;;;;5051407;28;20047;-64
2022/10/03 14:22:53;;;;;;;3.45;1.00;;;18.50;74.10;;;;;;5051156;28;20039;-62
2022/10/03 14:25:41;;;;;;;3.72;1.15;;;18.60;74.20;;;;;;5050800;28;20473;-58
2022/10/03 14:28:09;;;;;;;3.38;0.82;;;18.60;71.70;;;;;;5051205;28;20020;-60
2022/10/03 14:31:09;;;;;;;1.90;0.98;;;18.60;73.00;;;;;;5051038;28;20048;-65
2022/10/03 14:33:57;;;;;;;2.58;0.95;;;18.60;72.20;;;;;;5047176;28;20041;-64
2022/10/03 14:36:38;;;;;;;4.35;1.00;;;18.60;72.00;;;;;;5051197;28;20074;-69
2022/10/03 14:39:21;;;;;;;1.85;0.88;;;18.60;72.20;;;;;;5048795;28;20064;-55
2022/10/03 14:42:22;;;;;;;3.17;0.80;;;18.60;72.40;;;;;;5039356;28;20488;-69